createdAt,value
2023-05-01T00:00:52.454Z,5.23
2023-05-01T00:03:21.146Z,5.27
2023-05-01T00:05:48.498Z,5.00
2023-05-01T00:08:16.223Z,4.47
2023-05-01T00:10:43.180Z,4.50
2023-05-01T00:13:10.338Z,5.20
2023-05-01T00:15:37.401Z,4.53
2023-05-01T00:18:04.608Z,4.17
2023-05-01T00:20:32.802Z,4.17
2023-05-01T00:22:59.934Z,4.73
2023-05-01T00:25:26.936Z,4.97
2023-05-01T00:27:54.148Z,4.33
2023-05-01T00:30:21.034Z,4.23
2023-05-01T00:32:48.330Z,4.83
2023-05-01T00:35:18.033Z,4.23
2023-05-01T00:37:46.558Z,4.60
2023-05-01T00:40:13.397Z,4.23
2023-05-01T00:42:41.195Z,4.50
2023-05-01T00:45:09.067Z,5.73
2023-05-01T00:47:36.738Z,11.10
2023-05-01T00:50:04.028Z,6.03
2023-05-01T00:52:31.079Z,4.30
2023-05-01T00:54:59.465Z,4.13
2023-05-01T00:57:26.724Z,4.20
2023-05-01T00:59:53.581Z,4.17
2023-05-01T01:02:20.785Z,4.10
2023-05-01T01:04:48.798Z,4.07
2023-05-01T01:07:22.013Z,3.73
2023-05-01T01:09:58.199Z,3.87
2023-05-01T01:12:32.357Z,4.30
2023-05-01T01:15:08.021Z,3.90
2023-05-01T01:17:42.540Z,3.90
2023-05-01T01:20:30.287Z,3.93
2023-05-01T01:23:08.632Z,3.80
2023-05-01T01:26:00.452Z,3.47
2023-05-01T01:28:55.815Z,3.80
2023-05-01T01:31:32.939Z,3.97
2023-05-01T01:34:04.280Z,4.00
2023-05-01T01:36:49.655Z,3.80
2023-05-01T01:39:26.916Z,3.63
2023-05-01T01:41:57.960Z,3.80
2023-05-01T01:44:32.259Z,3.97
2023-05-01T01:47:01.903Z,3.60
2023-05-01T01:49:32.548Z,4.40
2023-05-01T01:52:02.997Z,3.90
2023-05-01T01:54:35.539Z,3.80
2023-05-01T01:57:04.727Z,3.93
2023-05-01T01:59:34.901Z,3.80
2023-05-01T02:02:04.285Z,3.90
2023-05-01T02:04:34.095Z,4.53
2023-05-01T02:07:03.160Z,5.03
2023-05-01T02:09:31.243Z,7.97
2023-05-01T02:12:00.340Z,8.10
2023-05-01T02:14:28.056Z,9.60
2023-05-01T02:16:57.728Z,5.10
2023-05-01T02:19:25.665Z,4.30
2023-05-01T02:21:56.223Z,4.27
2023-05-01T02:24:24.889Z,4.10
2023-05-01T02:26:57.190Z,4.60
2023-05-01T02:29:25.445Z,4.80
2023-05-01T02:31:52.384Z,4.60
2023-05-01T02:34:19.615Z,3.90
2023-05-01T02:36:46.557Z,5.10
2023-05-01T02:39:15.165Z,4.73
2023-05-01T02:41:42.264Z,4.93
2023-05-01T02:44:11.724Z,4.30
2023-05-01T02:46:43.096Z,4.40
2023-05-01T02:49:12.778Z,4.83
2023-05-01T02:51:41.004Z,4.77
2023-05-01T02:54:08.669Z,4.83
2023-05-01T02:56:37.232Z,4.53
2023-05-01T02:59:04.389Z,4.67
2023-05-01T03:01:31.257Z,4.63
2023-05-01T03:03:58.301Z,4.80
2023-05-01T03:06:25.333Z,4.37
2023-05-01T03:08:52.533Z,4.90
2023-05-01T03:11:19.319Z,4.83
2023-05-01T03:13:48.181Z,4.77
2023-05-01T03:16:15.025Z,4.63
2023-05-01T03:18:42.228Z,4.57
2023-05-01T03:21:09.146Z,5.03
2023-05-01T03:23:36.457Z,4.80
2023-05-01T03:26:03.275Z,4.63
2023-05-01T03:28:30.388Z,5.20
2023-05-01T03:30:58.516Z,4.83
2023-05-01T03:33:26.641Z,5.17
2023-05-01T03:36:00.604Z,5.30
2023-05-01T03:38:28.427Z,5.30
2023-05-01T03:40:55.257Z,5.10
2023-05-01T03:43:22.576Z,4.80
2023-05-01T03:45:49.398Z,4.63
2023-05-01T03:48:18.002Z,5.57
2023-05-01T03:50:44.823Z,5.50
2023-05-01T03:53:11.969Z,4.90
2023-05-01T03:55:38.753Z,5.10
2023-05-01T03:58:06.033Z,5.60
2023-05-01T04:00:33.360Z,5.33
2023-05-01T04:03:00.451Z,5.73
2023-05-01T04:05:29.328Z,6.13
2023-05-01T04:07:56.291Z,5.50
2023-05-01T04:10:23.785Z,6.50
2023-05-01T04:12:50.509Z,5.80
2023-05-01T04:15:17.423Z,5.80
2023-05-01T04:17:44.594Z,6.37
2023-05-01T04:20:12.678Z,6.13
2023-05-01T04:22:40.938Z,6.83
2023-05-01T04:25:09.284Z,6.90
2023-05-01T04:27:36.057Z,7.13
2023-05-01T04:30:03.569Z,6.40
2023-05-01T04:32:30.473Z,6.40
2023-05-01T04:34:57.931Z,5.70
2023-05-01T04:37:24.811Z,6.27
2023-05-01T04:39:53.862Z,6.00
2023-05-01T04:42:21.139Z,5.90
2023-05-01T04:44:48.636Z,6.27
2023-05-01T04:47:15.474Z,6.17
2023-05-01T04:49:42.647Z,6.13
2023-05-01T04:52:09.519Z,5.90
2023-05-01T04:54:36.658Z,5.70
2023-05-01T04:57:05.089Z,5.60
2023-05-01T04:59:32.286Z,6.23
2023-05-01T05:01:59.226Z,6.20
2023-05-01T05:04:26.163Z,5.43
2023-05-01T05:06:53.035Z,5.73
2023-05-01T05:09:20.392Z,5.80
2023-05-01T05:11:47.322Z,5.83
2023-05-01T05:14:15.522Z,5.73
2023-05-01T05:16:42.633Z,6.00
2023-05-01T05:19:09.801Z,6.10
2023-05-01T05:21:37.313Z,5.83
2023-05-01T05:24:04.789Z,6.40
2023-05-01T05:26:31.646Z,6.77
2023-05-01T05:28:58.846Z,6.30
2023-05-01T05:31:27.045Z,7.10
2023-05-01T05:33:54.384Z,6.37
2023-05-01T05:36:21.469Z,6.23
2023-05-01T05:38:48.377Z,6.50
2023-05-01T05:41:15.861Z,6.10
2023-05-01T05:43:42.740Z,6.40
2023-05-01T05:46:10.019Z,6.80
2023-05-01T05:48:38.271Z,6.30
2023-05-01T05:51:05.867Z,6.30
2023-05-01T05:53:32.801Z,6.43
2023-05-01T05:55:59.945Z,6.00
2023-05-01T05:58:27.301Z,5.50
2023-05-01T06:00:55.805Z,6.93
2023-05-01T06:03:22.957Z,5.40
2023-05-01T06:05:51.849Z,6.27
2023-05-01T06:08:18.713Z,6.13
2023-05-01T06:10:46.385Z,6.00
2023-05-01T06:13:14.907Z,6.57
2023-05-01T06:15:42.248Z,5.47
2023-05-01T06:18:09.388Z,5.60
2023-05-01T06:20:37.248Z,5.37
2023-05-01T06:23:05.417Z,5.93
2023-05-01T06:25:32.667Z,5.70
2023-05-01T06:27:59.558Z,5.20
2023-05-01T06:30:26.633Z,5.10
2023-05-01T06:32:53.428Z,5.17
2023-05-01T06:35:21.349Z,4.80
2023-05-01T06:37:48.180Z,5.57
2023-05-01T06:40:16.804Z,5.57
2023-05-01T06:42:43.769Z,5.80
2023-05-01T06:45:11.155Z,5.60
2023-05-01T06:47:37.954Z,5.13
2023-05-01T06:50:06.198Z,5.13
2023-05-01T06:52:33.052Z,5.10
2023-05-01T06:55:00.252Z,5.13
2023-05-01T06:57:28.430Z,5.17
2023-05-01T06:59:55.999Z,6.20
2023-05-01T07:02:23.131Z,6.20
2023-05-01T07:04:50.387Z,6.60
2023-05-01T07:07:17.166Z,7.13
2023-05-01T07:09:44.373Z,7.00
2023-05-01T07:12:11.229Z,7.17
2023-05-01T07:14:39.431Z,7.40
2023-05-01T07:17:06.767Z,8.37
2023-05-01T07:19:34.111Z,7.10
2023-05-01T07:22:01.028Z,7.67
2023-05-01T07:24:28.407Z,7.90
2023-05-01T07:26:56.594Z,8.63
2023-05-01T07:29:23.991Z,8.50
2023-05-01T07:31:52.152Z,9.60
2023-05-01T07:34:19.854Z,9.70
2023-05-01T07:36:46.792Z,9.37
2023-05-01T07:39:15.015Z,9.70
2023-05-01T07:41:41.908Z,10.27
2023-05-01T07:44:09.018Z,11.27
2023-05-01T07:46:36.879Z,10.43
2023-05-01T07:49:05.708Z,11.17
2023-05-01T07:51:32.691Z,11.70
2023-05-01T07:54:04.754Z,12.63
2023-05-01T07:56:31.827Z,13.17
2023-05-01T07:58:59.851Z,14.37
2023-05-01T08:01:26.776Z,14.20
2023-05-01T08:03:54.090Z,15.10
2023-05-01T08:06:22.519Z,14.07
2023-05-01T08:08:49.817Z,13.77
2023-05-01T08:11:16.663Z,14.13
2023-05-01T08:13:43.847Z,15.30
2023-05-01T08:16:10.805Z,13.87
2023-05-01T08:18:37.936Z,15.07
2023-05-01T08:21:04.901Z,13.77
2023-05-01T08:23:33.434Z,13.10
2023-05-01T08:26:00.188Z,14.63
2023-05-01T08:28:27.432Z,13.87
2023-05-01T08:30:54.167Z,13.17
2023-05-01T08:33:21.296Z,12.10
2023-05-01T08:35:49.424Z,11.30
2023-05-01T08:38:16.585Z,13.10
2023-05-01T08:40:53.393Z,11.27
2023-05-01T08:43:21.114Z,11.57
2023-05-01T08:45:49.786Z,12.03
2023-05-01T08:48:18.575Z,10.80
2023-05-01T08:50:46.916Z,12.50
2023-05-01T08:53:16.380Z,11.10
2023-05-01T08:55:49.120Z,14.00
2023-05-01T08:58:18.372Z,12.33
2023-05-01T09:00:46.579Z,10.73
2023-05-01T09:03:18.112Z,10.37
2023-05-01T09:05:47.013Z,10.07
2023-05-01T09:08:14.580Z,10.13
2023-05-01T09:10:45.311Z,9.77
2023-05-01T09:13:13.974Z,9.90
2023-05-01T09:15:41.056Z,9.43
2023-05-01T09:18:09.119Z,9.73
2023-05-01T09:20:37.492Z,8.80
2023-05-01T09:23:04.448Z,9.47
2023-05-01T09:25:31.422Z,9.07
2023-05-01T09:27:58.237Z,8.90
2023-05-01T09:30:34.031Z,9.20
2023-05-01T09:33:08.858Z,8.67
2023-05-01T09:35:49.950Z,8.50
2023-05-01T09:38:21.567Z,7.97
2023-05-01T09:40:48.473Z,7.93
2023-05-01T09:43:25.902Z,8.50
2023-05-01T09:46:09.350Z,8.53
2023-05-01T09:48:37.689Z,8.90
2023-05-01T09:51:24.603Z,8.77
2023-05-01T09:53:52.711Z,8.73
2023-05-01T09:56:21.422Z,9.10
2023-05-01T09:58:50.393Z,11.40
2023-05-01T10:01:18.825Z,9.10
2023-05-01T10:03:46.472Z,9.65
2023-05-01T10:06:29.874Z,9.13
2023-05-01T10:08:56.810Z,7.95
2023-05-01T10:11:23.844Z,7.57
2023-05-01T10:14:07.746Z,7.60
2023-05-01T10:16:37.658Z,7.80
2023-05-01T10:19:05.786Z,7.00
2023-05-01T10:21:33.535Z,7.90
2023-05-01T10:24:03.579Z,8.15
2023-05-01T10:26:30.548Z,7.47
2023-05-01T10:28:59.773Z,7.88
2023-05-01T10:31:27.808Z,8.68
2023-05-01T10:33:56.510Z,8.15
2023-05-01T10:36:26.200Z,7.30
2023-05-01T10:38:53.151Z,7.38
2023-05-01T10:41:54.357Z,7.10
2023-05-01T10:44:23.671Z,7.85
2023-05-01T10:46:50.622Z,8.00
2023-05-01T10:49:22.164Z,8.05
2023-05-01T10:52:00.903Z,8.25
2023-05-01T10:57:44.298Z,7.78
2023-05-01T11:00:11.813Z,7.20
2023-05-01T11:02:39.089Z,7.35
2023-05-01T11:05:07.954Z,6.82
2023-05-01T11:07:35.324Z,7.10
2023-05-01T11:10:02.202Z,6.95
2023-05-01T11:12:49.510Z,6.57
2023-05-01T11:15:29.322Z,7.07
2023-05-01T11:17:57.325Z,7.28
2023-05-01T11:20:48.421Z,7.43
2023-05-01T11:23:19.557Z,7.82
2023-05-01T11:25:48.058Z,7.18
2023-05-01T11:28:20.470Z,6.90
2023-05-01T11:30:48.258Z,7.00
2023-05-01T11:33:22.544Z,6.75
2023-05-01T11:36:01.716Z,6.82
2023-05-01T11:38:28.860Z,5.82
2023-05-01T11:40:59.177Z,6.45
2023-05-01T11:43:26.667Z,6.10
2023-05-01T11:45:55.486Z,12.18
2023-05-01T11:48:22.413Z,6.22
2023-05-01T11:50:50.235Z,5.40
2023-05-01T11:53:18.596Z,5.50
2023-05-01T11:55:45.704Z,5.00
2023-05-01T11:58:12.771Z,4.65
2023-05-01T12:00:41.968Z,4.97
2023-05-01T12:03:10.618Z,3.40
2023-05-01T12:05:39.258Z,3.90
2023-05-01T12:08:09.780Z,4.00
2023-05-01T12:10:40.129Z,5.72
2023-05-01T12:13:08.883Z,3.30
2023-05-01T12:15:37.635Z,4.05
2023-05-01T12:18:05.953Z,4.53
2023-05-01T12:20:40.470Z,4.38
2023-05-01T12:23:09.656Z,3.90
2023-05-01T12:25:39.757Z,4.40
2023-05-01T12:28:11.228Z,4.07
2023-05-01T12:30:39.321Z,3.55
2023-05-01T12:33:11.628Z,3.80
2023-05-01T12:35:39.806Z,4.05
2023-05-01T12:38:14.495Z,4.10
2023-05-01T12:40:52.600Z,4.00
2023-05-01T12:43:19.952Z,3.70
2023-05-01T12:45:51.769Z,3.97
2023-05-01T12:48:19.018Z,3.08
2023-05-01T12:50:47.495Z,3.45
2023-05-01T12:53:14.977Z,4.30
2023-05-01T12:55:47.933Z,5.72
2023-05-01T12:58:16.218Z,3.58
2023-05-01T13:00:45.554Z,2.95
2023-05-01T13:03:13.185Z,3.00
2023-05-01T13:05:54.219Z,2.65
2023-05-01T13:08:29.706Z,3.00
2023-05-01T13:10:59.772Z,2.80
2023-05-01T13:13:31.921Z,2.65
2023-05-01T13:16:07.351Z,2.70
2023-05-01T13:18:34.636Z,2.25
2023-05-01T13:21:08.884Z,3.00
2023-05-01T13:23:37.824Z,2.70
2023-05-01T13:26:07.211Z,2.80
2023-05-01T13:28:35.975Z,2.47
2023-05-01T13:31:12.870Z,2.58
2023-05-01T13:33:41.363Z,2.40
2023-05-01T13:36:18.141Z,2.60
2023-05-01T13:38:54.386Z,2.92
2023-05-01T13:41:26.071Z,3.00
2023-05-01T13:43:54.573Z,2.70
2023-05-01T13:46:24.067Z,2.90
2023-05-01T13:48:51.605Z,3.00
2023-05-01T13:51:22.433Z,2.80
2023-05-01T13:53:49.616Z,3.13
2023-05-01T13:56:16.546Z,2.78
2023-05-01T13:58:45.444Z,3.10
2023-05-01T14:01:16.091Z,2.85
2023-05-01T14:03:43.929Z,2.85
2023-05-01T14:06:12.685Z,2.88
2023-05-01T14:08:40.047Z,3.10
2023-05-01T14:11:08.682Z,2.70
2023-05-01T14:13:36.243Z,2.42
2023-05-01T14:16:07.872Z,2.35
2023-05-01T14:18:35.533Z,2.28
2023-05-01T14:21:02.659Z,1.73
2023-05-01T14:23:32.153Z,1.98
2023-05-01T14:25:58.974Z,1.88
2023-05-01T14:28:26.078Z,1.77
2023-05-01T14:30:54.700Z,2.08
2023-05-01T14:33:23.287Z,2.08
2023-05-01T14:35:52.399Z,2.10
2023-05-01T14:38:21.680Z,2.05
2023-05-01T14:40:48.758Z,2.10
2023-05-01T14:43:18.420Z,1.83
2023-05-01T14:45:46.706Z,1.98
2023-05-01T14:48:23.515Z,1.90
2023-05-01T14:50:50.948Z,1.70
2023-05-01T14:53:18.372Z,1.90
2023-05-01T14:55:45.212Z,1.70
2023-05-01T14:58:12.100Z,1.50
2023-05-01T15:00:39.053Z,1.73
2023-05-01T15:03:06.000Z,1.60
2023-05-01T15:05:34.402Z,1.80
2023-05-01T15:08:01.812Z,1.65
2023-05-01T15:10:29.432Z,1.58
2023-05-01T15:12:56.330Z,1.95
2023-05-01T15:15:23.200Z,1.63
2023-05-01T15:17:50.119Z,1.60
2023-05-01T15:20:17.150Z,2.08
2023-05-01T15:22:46.380Z,1.80
2023-05-01T15:25:13.723Z,2.30
2023-05-01T15:27:40.640Z,1.63
2023-05-01T15:30:10.133Z,1.60
2023-05-01T15:32:37.426Z,1.90
2023-05-01T15:35:04.920Z,1.70
2023-05-01T15:37:31.929Z,1.63
2023-05-01T15:40:00.301Z,1.73
2023-05-01T15:42:27.273Z,1.65
2023-05-01T15:44:54.407Z,1.73
2023-05-01T15:47:21.190Z,2.00
2023-05-01T15:49:48.916Z,1.65
2023-05-01T15:52:15.744Z,1.80
2023-05-01T15:54:46.024Z,1.50
2023-05-01T15:57:17.635Z,1.50
2023-05-01T15:59:45.054Z,1.70
2023-05-01T16:02:12.239Z,1.40
2023-05-01T16:04:39.549Z,1.35
2023-05-01T16:07:08.852Z,1.20
2023-05-01T16:09:35.998Z,1.48
2023-05-01T16:12:03.108Z,1.27
2023-05-01T16:14:32.025Z,1.50
2023-05-01T16:16:59.022Z,1.50
2023-05-01T16:19:29.476Z,1.30
2023-05-01T16:21:56.396Z,1.67
2023-05-01T16:24:23.585Z,1.70
2023-05-01T16:26:50.498Z,1.60
2023-05-01T16:29:18.969Z,1.55
2023-05-01T16:31:47.651Z,1.60
2023-05-01T16:34:15.552Z,2.05
2023-05-01T16:36:43.014Z,1.70
2023-05-01T16:39:11.487Z,2.30
2023-05-01T16:41:44.352Z,3.70
2023-05-01T16:44:11.930Z,1.90
2023-05-01T16:46:41.065Z,1.77
2023-05-01T16:49:11.116Z,1.88
2023-05-01T16:51:38.581Z,1.90
2023-05-01T16:54:05.728Z,1.90
2023-05-01T16:56:32.580Z,1.70
2023-05-01T16:58:59.497Z,1.70
2023-05-01T17:01:26.382Z,1.70
2023-05-01T17:03:53.549Z,5.22
2023-05-01T17:06:22.110Z,2.55
2023-05-01T17:08:49.797Z,1.70
2023-05-01T17:11:16.794Z,1.60
2023-05-01T17:13:44.018Z,1.40
2023-05-01T17:16:10.901Z,1.67
2023-05-01T17:18:37.844Z,2.25
2023-05-01T17:21:05.109Z,1.80
2023-05-01T17:23:33.327Z,2.03
2023-05-01T17:26:00.765Z,1.75
2023-05-01T17:28:27.673Z,1.90
2023-05-01T17:30:54.473Z,1.60
2023-05-01T17:33:22.090Z,1.60
2023-05-01T17:35:49.373Z,1.42
2023-05-01T17:38:17.437Z,1.50
2023-05-01T17:40:46.074Z,1.42
2023-05-01T17:43:13.921Z,1.30
2023-05-01T17:45:41.064Z,1.30
2023-05-01T17:48:08.497Z,1.20
2023-05-01T17:50:35.310Z,1.52
2023-05-01T17:53:02.135Z,1.27
2023-05-01T17:55:29.616Z,1.40
2023-05-01T17:57:58.180Z,1.60
2023-05-01T18:00:27.523Z,1.45
2023-05-01T18:02:54.670Z,1.50
2023-05-01T18:05:22.621Z,1.17
2023-05-01T18:07:50.162Z,1.20
2023-05-01T18:10:17.125Z,1.20
2023-05-01T18:12:45.730Z,1.33
2023-05-01T18:15:17.406Z,1.80
2023-05-01T18:17:49.068Z,1.50
2023-05-01T18:20:16.139Z,1.52
2023-05-01T18:22:42.947Z,1.88
2023-05-01T18:25:10.065Z,1.40
2023-05-01T18:27:37.894Z,1.58
2023-05-01T18:30:05.426Z,1.58
2023-05-01T18:32:46.388Z,1.50
2023-05-01T18:35:15.156Z,1.50
2023-05-01T18:37:43.177Z,1.58
2023-05-01T18:40:10.746Z,1.63
2023-05-01T18:42:38.231Z,1.95
2023-05-01T18:45:06.412Z,1.50
2023-05-01T18:47:34.904Z,1.88
2023-05-01T18:50:02.206Z,1.80
2023-05-01T18:52:30.261Z,1.75
2023-05-01T18:54:57.216Z,1.77
2023-05-01T18:57:24.127Z,1.80
2023-05-01T18:59:51.011Z,1.98
2023-05-01T19:02:17.838Z,3.13
2023-05-01T19:04:56.925Z,3.67
2023-05-01T19:07:25.274Z,3.90
2023-05-01T19:09:52.468Z,3.85
2023-05-01T19:12:19.270Z,3.88
2023-05-01T19:14:46.181Z,3.58
2023-05-01T19:17:13.381Z,4.07
2023-05-01T19:19:40.264Z,3.90
2023-05-01T19:22:08.445Z,3.72
2023-05-01T19:24:35.694Z,4.17
2023-05-01T19:27:03.430Z,3.95
2023-05-01T19:29:31.716Z,3.50
2023-05-01T19:32:00.285Z,4.03
2023-05-01T19:34:27.408Z,5.57
2023-05-01T19:36:57.666Z,5.25
2023-05-01T19:39:26.492Z,4.72
2023-05-01T19:41:54.013Z,4.40
2023-05-01T19:44:21.167Z,4.32
2023-05-01T19:46:48.739Z,7.35
2023-05-01T19:49:16.054Z,4.28
2023-05-01T19:51:43.120Z,2.40
2023-05-01T19:54:10.003Z,2.40
2023-05-01T19:56:39.387Z,2.10
2023-05-01T19:59:06.306Z,1.63
2023-05-01T20:01:33.362Z,1.90
2023-05-01T20:04:00.394Z,2.10
2023-05-01T20:06:27.601Z,1.73
2023-05-01T20:08:54.821Z,1.80
2023-05-01T20:11:21.654Z,1.77
2023-05-01T20:13:50.415Z,5.27
2023-05-01T20:16:17.328Z,3.87
2023-05-01T20:18:44.270Z,2.27
2023-05-01T20:21:11.122Z,2.57
2023-05-01T20:23:38.481Z,1.87
2023-05-01T20:26:05.274Z,1.80
2023-05-01T20:28:32.250Z,1.90
2023-05-01T20:31:00.705Z,2.10
2023-05-01T20:33:27.655Z,1.83
2023-05-01T20:35:54.440Z,1.80
2023-05-01T20:38:22.224Z,1.83
2023-05-01T20:40:49.075Z,1.83
2023-05-01T20:43:16.488Z,1.80
2023-05-01T20:45:43.355Z,1.57
2023-05-01T20:48:11.916Z,1.90
2023-05-01T20:50:41.415Z,2.27
2023-05-01T20:53:08.612Z,1.87
2023-05-01T20:55:36.386Z,1.80
2023-05-01T20:58:03.763Z,1.87
2023-05-01T21:00:30.560Z,2.07
2023-05-01T21:02:59.651Z,1.77
2023-05-01T21:05:29.021Z,1.93
2023-05-01T21:07:57.969Z,1.70
2023-05-01T21:10:24.854Z,2.00
2023-05-01T21:12:54.569Z,2.07
2023-05-01T21:15:22.453Z,2.00
2023-05-01T21:17:49.779Z,2.53
2023-05-01T21:20:21.831Z,2.00
2023-05-01T21:22:50.508Z,1.70
2023-05-01T21:25:28.150Z,1.97
2023-05-01T21:27:55.305Z,1.70
2023-05-01T21:30:29.603Z,2.00
2023-05-01T21:32:57.675Z,2.00
2023-05-01T21:35:25.651Z,1.93
2023-05-01T21:37:54.110Z,1.90
2023-05-01T21:40:21.280Z,1.90
2023-05-01T21:42:48.772Z,2.20
2023-05-01T21:45:18.911Z,2.03
2023-05-01T21:47:47.789Z,2.10
2023-05-01T21:50:17.208Z,2.10
2023-05-01T21:52:46.068Z,2.20
2023-05-01T21:55:17.453Z,2.10
2023-05-01T21:57:44.769Z,2.03
2023-05-01T22:00:12.665Z,2.00
2023-05-01T22:02:42.171Z,2.47
2023-05-01T22:05:11.121Z,2.63
2023-05-01T22:07:40.585Z,2.50
2023-05-01T22:10:09.051Z,2.67
2023-05-01T22:12:37.900Z,2.50
2023-05-01T22:15:05.760Z,2.57
2023-05-01T22:17:34.645Z,2.63
2023-05-01T22:20:05.689Z,2.90
2023-05-01T22:22:32.535Z,2.53
2023-05-01T22:24:59.383Z,2.67
2023-05-01T22:27:26.532Z,2.70
2023-05-01T22:29:54.679Z,2.90
2023-05-01T22:32:22.022Z,2.80
2023-05-01T22:34:49.054Z,2.80
2023-05-01T22:37:16.227Z,2.80
2023-05-01T22:39:43.017Z,3.33
2023-05-01T22:42:10.302Z,2.90
2023-05-01T22:44:37.081Z,2.93
2023-05-01T22:47:05.263Z,3.10
2023-05-01T22:49:32.703Z,2.90
2023-05-01T22:52:00.164Z,3.60
2023-05-01T22:54:26.960Z,3.10
2023-05-01T22:56:54.084Z,3.43
2023-05-01T22:59:21.664Z,3.50
2023-05-01T23:01:49.054Z,3.10
2023-05-01T23:04:17.506Z,3.13
2023-05-01T23:06:44.896Z,3.50
2023-05-01T23:09:11.997Z,3.57
2023-05-01T23:11:40.899Z,3.07
2023-05-01T23:14:07.848Z,3.50
2023-05-01T23:16:41.984Z,3.20
2023-05-01T23:19:22.171Z,3.60
2023-05-01T23:21:50.014Z,4.13
2023-05-01T23:24:19.010Z,3.93
2023-05-01T23:26:46.673Z,3.43
2023-05-01T23:29:14.170Z,3.60
2023-05-01T23:31:45.933Z,3.67
2023-05-01T23:34:17.377Z,3.60
2023-05-01T23:36:47.536Z,3.43
2023-05-01T23:39:16.026Z,3.40
2023-05-01T23:41:43.167Z,3.43
2023-05-01T23:44:10.708Z,3.63
2023-05-01T23:46:38.178Z,4.10
2023-05-01T23:49:05.180Z,3.60
2023-05-01T23:51:32.109Z,3.90
2023-05-01T23:54:00.483Z,3.57
2023-05-01T23:56:27.380Z,4.40
2023-05-01T23:58:54.272Z,4.37
